sensor_id;sensor_type;location;lat;lon;timestamp;temperature;humidity
3626;DHT22;1827;50.534;8.316;2022-10-16T00:00:36;12.80;99.90
3626;DHT22;1827;50.534;8.316;2022-10-16T00:03:02;12.70;99.90
3626;DHT22;1827;50.534;8.316;2022-10-16T00:05:28;12.70;99.90
3626;DHT22;1827;50.534;8.316;2022-10-16T00:07:54;12.90;99.90
3626;DHT22;1827;50.534;8.316;2022-10-16T00:10:19;12.80;99.90
3626;DHT22;1827;50.534;8.316;2022-10-16T00:12:45;12.80;99.90
3626;DHT22;1827;50.534;8.316;2022-10-16T00:15:11;12.70;99.90
3626;DHT22;1827;50.534;8.316;2022-10-16T00:17:37;12.70;99.90
3626;DHT22;1827;50.534;8.316;2022-10-16T00:20:02;12.70;99.90
3626;DHT22;1827;50.534;8.316;2022-10-16T00:22:28;12.60;99.90
3626;DHT22;1827;50.534;8.316;2022-10-16T00:24:54;12.60;99.90
3626;DHT22;1827;50.534;8.316;2022-10-16T00:27:20;12.70;99.90
3626;DHT22;1827;50.534;8.316;2022-10-16T00:29:49;12.80;99.90
3626;DHT22;1827;50.534;8.316;2022-10-16T00:32:14;12.80;99.90
3626;DHT22;1827;50.534;8.316;2022-10-16T00:34:40;12.60;99.90
3626;DHT22;1827;50.534;8.316;2022-10-16T00:37:06;12.60;99.90
3626;DHT22;1827;50.534;8.316;2022-10-16T00:39:32;12.50;99.90
3626;DHT22;1827;50.534;8.316;2022-10-16T00:41:57;12.50;99.90
3626;DHT22;1827;50.534;8.316;2022-10-16T00:47:11;12.50;99.90
3626;DHT22;1827;50.534;8.316;2022-10-16T00:49:38;12.60;99.90
3626;DHT22;1827;50.534;8.316;2022-10-16T00:52:03;12.60;99.90
3626;DHT22;1827;50.534;8.316;2022-10-16T00:54:31;12.60;99.90
3626;DHT22;1827;50.534;8.316;2022-10-16T00:56:58;12.60;99.90
3626;DHT22;1827;50.534;8.316;2022-10-16T00:59:25;12.50;99.90
3626;DHT22;1827;50.534;8.316;2022-10-16T01:01:52;12.50;99.90
3626;DHT22;1827;50.534;8.316;2022-10-16T01:04:18;12.40;99.90
3626;DHT22;1827;50.534;8.316;2022-10-16T01:07:00;12.30;99.90
3626;DHT22;1827;50.534;8.316;2022-10-16T01:12:10;12.40;99.90
3626;DHT22;1827;50.534;8.316;2022-10-16T01:17:08;12.40;99.90
3626;DHT22;1827;50.534;8.316;2022-10-16T01:22:13;12.40;99.90
3626;DHT22;1827;50.534;8.316;2022-10-16T01:24:40;12.30;99.90
3626;DHT22;1827;50.534;8.316;2022-10-16T01:32:10;12.20;99.90
3626;DHT22;1827;50.534;8.316;2022-10-16T01:34:38;12.20;99.90
3626;DHT22;1827;50.534;8.316;2022-10-16T01:37:15;12.40;99.90
3626;DHT22;1827;50.534;8.316;2022-10-16T01:39:42;12.30;99.90
3626;DHT22;1827;50.534;8.316;2022-10-16T01:42:11;12.20;99.90
3626;DHT22;1827;50.534;8.316;2022-10-16T01:44:39;12.10;99.90
3626;DHT22;1827;50.534;8.316;2022-10-16T01:47:05;12.10;99.90
3626;DHT22;1827;50.534;8.316;2022-10-16T01:49:33;12.10;99.90
3626;DHT22;1827;50.534;8.316;2022-10-16T01:52:00;12.10;99.90
3626;DHT22;1827;50.534;8.316;2022-10-16T01:54:28;12.20;99.90
3626;DHT22;1827;50.534;8.316;2022-10-16T01:56:54;12.10;99.90
3626;DHT22;1827;50.534;8.316;2022-10-16T01:59:21;12.00;99.90
3626;DHT22;1827;50.534;8.316;2022-10-16T02:01:49;12.10;99.90
3626;DHT22;1827;50.534;8.316;2022-10-16T02:04:21;12.10;99.90
3626;DHT22;1827;50.534;8.316;2022-10-16T02:06:47;12.00;99.90
3626;DHT22;1827;50.534;8.316;2022-10-16T02:09:13;12.00;99.90
3626;DHT22;1827;50.534;8.316;2022-10-16T02:11:42;11.90;99.90
3626;DHT22;1827;50.534;8.316;2022-10-16T02:14:08;11.90;99.90
3626;DHT22;1827;50.534;8.316;2022-10-16T02:16:35;11.90;99.90
3626;DHT22;1827;50.534;8.316;2022-10-16T02:19:01;11.90;99.90
3626;DHT22;1827;50.534;8.316;2022-10-16T02:21:33;11.90;99.90
3626;DHT22;1827;50.534;8.316;2022-10-16T02:26:35;12.00;99.90
3626;DHT22;1827;50.534;8.316;2022-10-16T02:29:02;12.00;99.90
3626;DHT22;1827;50.534;8.316;2022-10-16T02:31:32;12.00;99.90
3626;DHT22;1827;50.534;8.316;2022-10-16T02:33:59;11.90;99.90
3626;DHT22;1827;50.534;8.316;2022-10-16T02:36:26;11.80;99.90
3626;DHT22;1827;50.534;8.316;2022-10-16T02:38:52;11.90;99.90
3626;DHT22;1827;50.534;8.316;2022-10-16T02:41:18;11.80;99.90
3626;DHT22;1827;50.534;8.316;2022-10-16T02:43:43;11.80;99.90
3626;DHT22;1827;50.534;8.316;2022-10-16T02:46:09;11.80;99.90
3626;DHT22;1827;50.534;8.316;2022-10-16T02:48:35;11.80;99.90
3626;DHT22;1827;50.534;8.316;2022-10-16T02:51:01;11.80;99.90
3626;DHT22;1827;50.534;8.316;2022-10-16T02:53:26;11.90;99.90
3626;DHT22;1827;50.534;8.316;2022-10-16T02:55:52;12.10;99.90
3626;DHT22;1827;50.534;8.316;2022-10-16T02:58:17;12.00;99.90
3626;DHT22;1827;50.534;8.316;2022-10-16T03:00:43;12.00;99.90
3626;DHT22;1827;50.534;8.316;2022-10-16T03:03:09;11.90;99.90
3626;DHT22;1827;50.534;8.316;2022-10-16T03:05:35;11.90;99.90
3626;DHT22;1827;50.534;8.316;2022-10-16T03:08:00;11.90;99.90
3626;DHT22;1827;50.534;8.316;2022-10-16T03:10:26;11.80;99.90
3626;DHT22;1827;50.534;8.316;2022-10-16T03:12:52;12.00;99.90
3626;DHT22;1827;50.534;8.316;2022-10-16T03:15:18;12.10;99.90
3626;DHT22;1827;50.534;8.316;2022-10-16T03:17:43;12.00;99.90
3626;DHT22;1827;50.534;8.316;2022-10-16T03:20:09;11.90;99.90
3626;DHT22;1827;50.534;8.316;2022-10-16T03:22:35;11.90;99.90
3626;DHT22;1827;50.534;8.316;2022-10-16T03:25:00;11.90;99.90
3626;DHT22;1827;50.534;8.316;2022-10-16T03:27:26;12.00;99.90
3626;DHT22;1827;50.534;8.316;2022-10-16T03:29:51;12.00;99.90
3626;DHT22;1827;50.534;8.316;2022-10-16T03:32:17;12.10;99.90
3626;DHT22;1827;50.534;8.316;2022-10-16T03:34:43;12.10;99.90
3626;DHT22;1827;50.534;8.316;2022-10-16T03:37:09;12.10;99.90
3626;DHT22;1827;50.534;8.316;2022-10-16T03:39:35;12.00;99.90
3626;DHT22;1827;50.534;8.316;2022-10-16T03:42:00;12.20;99.90
3626;DHT22;1827;50.534;8.316;2022-10-16T03:44:26;12.10;99.90
3626;DHT22;1827;50.534;8.316;2022-10-16T03:46:52;12.00;99.90
3626;DHT22;1827;50.534;8.316;2022-10-16T03:49:17;11.90;99.90
3626;DHT22;1827;50.534;8.316;2022-10-16T03:51:43;11.80;99.90
3626;DHT22;1827;50.534;8.316;2022-10-16T03:54:09;11.80;99.90
3626;DHT22;1827;50.534;8.316;2022-10-16T03:56:35;11.90;99.90
3626;DHT22;1827;50.534;8.316;2022-10-16T03:59:00;11.90;99.90
3626;DHT22;1827;50.534;8.316;2022-10-16T04:01:26;11.90;99.90
3626;DHT22;1827;50.534;8.316;2022-10-16T04:03:51;11.90;99.90
3626;DHT22;1827;50.534;8.316;2022-10-16T04:06:17;11.90;99.90
3626;DHT22;1827;50.534;8.316;2022-10-16T04:08:43;11.90;99.90
3626;DHT22;1827;50.534;8.316;2022-10-16T04:11:09;11.90;99.90
3626;DHT22;1827;50.534;8.316;2022-10-16T04:13:34;11.90;99.90
3626;DHT22;1827;50.534;8.316;2022-10-16T04:16:00;11.90;99.90
3626;DHT22;1827;50.534;8.316;2022-10-16T04:18:26;11.90;99.90
3626;DHT22;1827;50.534;8.316;2022-10-16T04:20:52;11.90;99.90
3626;DHT22;1827;50.534;8.316;2022-10-16T04:23:18;12.00;99.90
3626;DHT22;1827;50.534;8.316;2022-10-16T04:25:44;12.00;99.90
3626;DHT22;1827;50.534;8.316;2022-10-16T04:28:09;12.00;99.90
3626;DHT22;1827;50.534;8.316;2022-10-16T04:30:37;12.00;99.90
3626;DHT22;1827;50.534;8.316;2022-10-16T04:33:03;12.00;99.90
3626;DHT22;1827;50.534;8.316;2022-10-16T04:35:28;12.00;99.90
3626;DHT22;1827;50.534;8.316;2022-10-16T04:37:54;12.00;99.90
3626;DHT22;1827;50.534;8.316;2022-10-16T04:40:19;12.00;99.90
3626;DHT22;1827;50.534;8.316;2022-10-16T04:42:45;12.10;99.90
3626;DHT22;1827;50.534;8.316;2022-10-16T04:45:10;12.10;99.90
3626;DHT22;1827;50.534;8.316;2022-10-16T04:47:36;12.10;99.90
3626;DHT22;1827;50.534;8.316;2022-10-16T04:50:02;12.10;99.90
3626;DHT22;1827;50.534;8.316;2022-10-16T04:52:28;12.10;99.90
3626;DHT22;1827;50.534;8.316;2022-10-16T04:54:53;12.10;99.90
3626;DHT22;1827;50.534;8.316;2022-10-16T04:57:20;12.10;99.90
3626;DHT22;1827;50.534;8.316;2022-10-16T04:59:46;12.10;99.90
3626;DHT22;1827;50.534;8.316;2022-10-16T05:02:11;12.10;99.90
3626;DHT22;1827;50.534;8.316;2022-10-16T05:04:37;12.10;99.90
3626;DHT22;1827;50.534;8.316;2022-10-16T05:07:03;12.20;99.90
3626;DHT22;1827;50.534;8.316;2022-10-16T05:09:28;12.30;99.90
3626;DHT22;1827;50.534;8.316;2022-10-16T05:11:54;12.30;99.90
3626;DHT22;1827;50.534;8.316;2022-10-16T05:14:19;12.30;99.90
3626;DHT22;1827;50.534;8.316;2022-10-16T05:16:45;12.20;99.90
3626;DHT22;1827;50.534;8.316;2022-10-16T05:19:10;12.10;99.90
3626;DHT22;1827;50.534;8.316;2022-10-16T05:21:36;12.10;99.90
3626;DHT22;1827;50.534;8.316;2022-10-16T05:24:02;12.10;99.90
3626;DHT22;1827;50.534;8.316;2022-10-16T05:26:27;12.10;99.90
3626;DHT22;1827;50.534;8.316;2022-10-16T05:28:53;12.10;99.90
3626;DHT22;1827;50.534;8.316;2022-10-16T05:31:19;12.10;99.90
3626;DHT22;1827;50.534;8.316;2022-10-16T05:33:44;12.20;99.90
3626;DHT22;1827;50.534;8.316;2022-10-16T05:36:10;12.20;99.90
3626;DHT22;1827;50.534;8.316;2022-10-16T05:38:36;12.20;99.90
3626;DHT22;1827;50.534;8.316;2022-10-16T05:41:03;12.20;99.90
3626;DHT22;1827;50.534;8.316;2022-10-16T05:43:29;12.10;99.90
3626;DHT22;1827;50.534;8.316;2022-10-16T05:45:56;12.10;99.90
3626;DHT22;1827;50.534;8.316;2022-10-16T05:48:22;12.10;99.90
3626;DHT22;1827;50.534;8.316;2022-10-16T05:50:48;12.20;99.90
3626;DHT22;1827;50.534;8.316;2022-10-16T05:53:14;12.30;99.90
3626;DHT22;1827;50.534;8.316;2022-10-16T05:55:39;12.20;99.90
3626;DHT22;1827;50.534;8.316;2022-10-16T05:58:05;12.10;99.90
3626;DHT22;1827;50.534;8.316;2022-10-16T06:00:31;12.00;99.90
3626;DHT22;1827;50.534;8.316;2022-10-16T06:02:56;12.00;99.90
3626;DHT22;1827;50.534;8.316;2022-10-16T06:05:22;12.10;99.90
3626;DHT22;1827;50.534;8.316;2022-10-16T06:07:47;12.00;99.90
3626;DHT22;1827;50.534;8.316;2022-10-16T06:10:13;12.00;99.90
3626;DHT22;1827;50.534;8.316;2022-10-16T06:12:39;12.00;99.90
3626;DHT22;1827;50.534;8.316;2022-10-16T06:15:05;12.00;99.90
3626;DHT22;1827;50.534;8.316;2022-10-16T06:17:30;12.00;99.90
3626;DHT22;1827;50.534;8.316;2022-10-16T06:19:56;12.10;99.90
3626;DHT22;1827;50.534;8.316;2022-10-16T06:22:21;12.20;99.90
3626;DHT22;1827;50.534;8.316;2022-10-16T06:24:47;12.20;99.90
3626;DHT22;1827;50.534;8.316;2022-10-16T06:27:13;12.20;99.90
3626;DHT22;1827;50.534;8.316;2022-10-16T06:29:38;12.10;99.90
3626;DHT22;1827;50.534;8.316;2022-10-16T06:32:04;12.10;99.90
3626;DHT22;1827;50.534;8.316;2022-10-16T06:34:29;12.20;99.90
3626;DHT22;1827;50.534;8.316;2022-10-16T06:36:55;12.20;99.90
3626;DHT22;1827;50.534;8.316;2022-10-16T06:39:21;12.30;99.90
3626;DHT22;1827;50.534;8.316;2022-10-16T06:41:46;12.30;99.90
3626;DHT22;1827;50.534;8.316;2022-10-16T06:44:14;12.30;99.90
3626;DHT22;1827;50.534;8.316;2022-10-16T06:46:40;12.60;99.90
3626;DHT22;1827;50.534;8.316;2022-10-16T06:49:06;12.70;99.90
3626;DHT22;1827;50.534;8.316;2022-10-16T06:51:31;12.70;99.90
3626;DHT22;1827;50.534;8.316;2022-10-16T06:53:59;12.60;99.90
3626;DHT22;1827;50.534;8.316;2022-10-16T06:56:26;12.60;99.90
3626;DHT22;1827;50.534;8.316;2022-10-16T06:58:52;12.60;99.90
3626;DHT22;1827;50.534;8.316;2022-10-16T07:01:18;12.60;99.90
3626;DHT22;1827;50.534;8.316;2022-10-16T07:03:44;12.50;99.90
3626;DHT22;1827;50.534;8.316;2022-10-16T07:06:11;12.60;99.90
3626;DHT22;1827;50.534;8.316;2022-10-16T07:08:39;12.70;99.90
3626;DHT22;1827;50.534;8.316;2022-10-16T07:11:10;12.90;99.90
3626;DHT22;1827;50.534;8.316;2022-10-16T07:13:37;12.90;99.90
3626;DHT22;1827;50.534;8.316;2022-10-16T07:16:18;12.90;99.90
3626;DHT22;1827;50.534;8.316;2022-10-16T07:18:44;13.00;99.90
3626;DHT22;1827;50.534;8.316;2022-10-16T07:21:12;13.20;99.90
3626;DHT22;1827;50.534;8.316;2022-10-16T07:23:38;13.20;99.90
3626;DHT22;1827;50.534;8.316;2022-10-16T07:26:04;13.30;99.90
3626;DHT22;1827;50.534;8.316;2022-10-16T07:28:30;13.30;99.90
3626;DHT22;1827;50.534;8.316;2022-10-16T07:30:59;13.20;99.90
3626;DHT22;1827;50.534;8.316;2022-10-16T07:33:25;13.20;99.90
3626;DHT22;1827;50.534;8.316;2022-10-16T07:35:51;13.20;99.90
3626;DHT22;1827;50.534;8.316;2022-10-16T07:38:17;13.30;99.90
3626;DHT22;1827;50.534;8.316;2022-10-16T07:40:43;13.30;99.90
3626;DHT22;1827;50.534;8.316;2022-10-16T07:43:09;13.30;99.90
3626;DHT22;1827;50.534;8.316;2022-10-16T07:45:34;13.30;99.90
3626;DHT22;1827;50.534;8.316;2022-10-16T07:48:00;13.30;99.90
3626;DHT22;1827;50.534;8.316;2022-10-16T07:50:25;13.20;99.90
3626;DHT22;1827;50.534;8.316;2022-10-16T07:52:51;13.20;99.90
3626;DHT22;1827;50.534;8.316;2022-10-16T07:55:17;13.10;99.90
3626;DHT22;1827;50.534;8.316;2022-10-16T07:57:42;13.30;99.90
3626;DHT22;1827;50.534;8.316;2022-10-16T08:00:08;13.50;99.90
3626;DHT22;1827;50.534;8.316;2022-10-16T08:02:41;13.60;99.90
3626;DHT22;1827;50.534;8.316;2022-10-16T08:05:07;13.90;99.90
3626;DHT22;1827;50.534;8.316;2022-10-16T08:07:33;14.00;99.90
3626;DHT22;1827;50.534;8.316;2022-10-16T08:09:59;14.00;99.90
3626;DHT22;1827;50.534;8.316;2022-10-16T08:12:26;13.90;99.90
3626;DHT22;1827;50.534;8.316;2022-10-16T08:14:51;13.90;99.90
3626;DHT22;1827;50.534;8.316;2022-10-16T08:17:17;14.00;99.90
3626;DHT22;1827;50.534;8.316;2022-10-16T08:19:46;14.10;99.90
3626;DHT22;1827;50.534;8.316;2022-10-16T08:22:13;14.30;99.90
3626;DHT22;1827;50.534;8.316;2022-10-16T08:24:39;14.50;99.90
3626;DHT22;1827;50.534;8.316;2022-10-16T08:27:05;14.70;99.90
3626;DHT22;1827;50.534;8.316;2022-10-16T08:29:32;14.80;99.90
3626;DHT22;1827;50.534;8.316;2022-10-16T08:31:58;14.90;99.90
3626;DHT22;1827;50.534;8.316;2022-10-16T08:34:24;15.00;99.90
3626;DHT22;1827;50.534;8.316;2022-10-16T08:36:53;15.10;99.90
3626;DHT22;1827;50.534;8.316;2022-10-16T08:39:19;15.10;99.90
3626;DHT22;1827;50.534;8.316;2022-10-16T08:45:32;15.60;99.90
3626;DHT22;1827;50.534;8.316;2022-10-16T08:50:44;16.10;99.90
3626;DHT22;1827;50.534;8.316;2022-10-16T08:53:17;16.20;99.90
3626;DHT22;1827;50.534;8.316;2022-10-16T08:55:49;16.10;99.90
3626;DHT22;1827;50.534;8.316;2022-10-16T08:58:44;16.00;99.90
3626;DHT22;1827;50.534;8.316;2022-10-16T09:01:13;15.90;99.90
3626;DHT22;1827;50.534;8.316;2022-10-16T09:06:58;16.30;99.90
3626;DHT22;1827;50.534;8.316;2022-10-16T09:09:40;16.40;99.90
3626;DHT22;1827;50.534;8.316;2022-10-16T09:12:19;16.60;99.90
3626;DHT22;1827;50.534;8.316;2022-10-16T09:14:56;17.10;99.90
3626;DHT22;1827;50.534;8.316;2022-10-16T09:17:47;17.30;99.90
3626;DHT22;1827;50.534;8.316;2022-10-16T09:23:30;16.90;99.90
3626;DHT22;1827;50.534;8.316;2022-10-16T09:25:59;17.40;99.90
3626;DHT22;1827;50.534;8.316;2022-10-16T09:28:25;17.20;99.90
3626;DHT22;1827;50.534;8.316;2022-10-16T09:30:51;17.00;99.90
3626;DHT22;1827;50.534;8.316;2022-10-16T09:33:20;17.20;99.90
3626;DHT22;1827;50.534;8.316;2022-10-16T09:35:51;17.40;99.90
3626;DHT22;1827;50.534;8.316;2022-10-16T09:38:29;17.30;99.90
3626;DHT22;1827;50.534;8.316;2022-10-16T09:40:58;17.10;99.90
3626;DHT22;1827;50.534;8.316;2022-10-16T09:46:00;17.00;99.90
3626;DHT22;1827;50.534;8.316;2022-10-16T09:48:48;17.10;99.90
3626;DHT22;1827;50.534;8.316;2022-10-16T09:51:35;17.40;99.90
3626;DHT22;1827;50.534;8.316;2022-10-16T09:54:14;17.50;99.90
3626;DHT22;1827;50.534;8.316;2022-10-16T09:56:40;18.00;99.90
3626;DHT22;1827;50.534;8.316;2022-10-16T09:59:18;18.20;99.90
3626;DHT22;1827;50.534;8.316;2022-10-16T10:01:49;18.20;99.90
3626;DHT22;1827;50.534;8.316;2022-10-16T10:04:23;18.40;99.90
3626;DHT22;1827;50.534;8.316;2022-10-16T10:06:52;18.60;99.90
3626;DHT22;1827;50.534;8.316;2022-10-16T10:09:42;18.70;99.90
3626;DHT22;1827;50.534;8.316;2022-10-16T10:12:27;18.50;99.90
3626;DHT22;1827;50.534;8.316;2022-10-16T10:14:55;18.70;99.90
3626;DHT22;1827;50.534;8.316;2022-10-16T10:17:24;18.70;99.90
3626;DHT22;1827;50.534;8.316;2022-10-16T10:20:32;18.30;99.90
3626;DHT22;1827;50.534;8.316;2022-10-16T10:23:00;18.10;99.90
3626;DHT22;1827;50.534;8.316;2022-10-16T10:25:44;18.30;99.90
3626;DHT22;1827;50.534;8.316;2022-10-16T10:33:55;18.70;99.90
3626;DHT22;1827;50.534;8.316;2022-10-16T10:36:39;18.60;99.90
3626;DHT22;1827;50.534;8.316;2022-10-16T10:39:15;18.20;99.90
3626;DHT22;1827;50.534;8.316;2022-10-16T10:44:54;18.20;99.90
3626;DHT22;1827;50.534;8.316;2022-10-16T10:50:14;19.00;99.90
3626;DHT22;1827;50.534;8.316;2022-10-16T11:07:02;20.50;99.90
3626;DHT22;1827;50.534;8.316;2022-10-16T11:09:51;20.50;99.90
3626;DHT22;1827;50.534;8.316;2022-10-16T11:12:25;21.10;99.90
3626;DHT22;1827;50.534;8.316;2022-10-16T11:17:30;20.60;99.90
3626;DHT22;1827;50.534;8.316;2022-10-16T11:20:05;21.30;99.90
3626;DHT22;1827;50.534;8.316;2022-10-16T11:22:50;21.60;99.90
3626;DHT22;1827;50.534;8.316;2022-10-16T11:25:31;21.30;99.90
3626;DHT22;1827;50.534;8.316;2022-10-16T11:28:18;21.50;99.90
3626;DHT22;1827;50.534;8.316;2022-10-16T11:36:04;20.10;99.90
3626;DHT22;1827;50.534;8.316;2022-10-16T11:46:48;19.90;99.90
3626;DHT22;1827;50.534;8.316;2022-10-16T11:49:21;20.10;99.90
3626;DHT22;1827;50.534;8.316;2022-10-16T11:52:16;20.10;99.90
3626;DHT22;1827;50.534;8.316;2022-10-16T11:54:49;20.00;99.90
3626;DHT22;1827;50.534;8.316;2022-10-16T11:57:24;20.70;99.90
3626;DHT22;1827;50.534;8.316;2022-10-16T11:59:58;20.30;99.90
3626;DHT22;1827;50.534;8.316;2022-10-16T12:05:18;20.50;99.90
3626;DHT22;1827;50.534;8.316;2022-10-16T12:08:09;20.90;99.90
3626;DHT22;1827;50.534;8.316;2022-10-16T12:10:37;21.50;99.90
3626;DHT22;1827;50.534;8.316;2022-10-16T12:13:05;20.80;99.90
3626;DHT22;1827;50.534;8.316;2022-10-16T12:15:50;21.00;99.90
3626;DHT22;1827;50.534;8.316;2022-10-16T12:18:24;21.00;99.90
3626;DHT22;1827;50.534;8.316;2022-10-16T12:20:57;20.50;99.90
3626;DHT22;1827;50.534;8.316;2022-10-16T12:23:25;20.60;99.90
3626;DHT22;1827;50.534;8.316;2022-10-16T12:26:01;20.10;99.90
3626;DHT22;1827;50.534;8.316;2022-10-16T12:28:32;19.80;99.90
3626;DHT22;1827;50.534;8.316;2022-10-16T12:31:04;19.80;99.90
3626;DHT22;1827;50.534;8.316;2022-10-16T12:33:42;19.80;99.90
3626;DHT22;1827;50.534;8.316;2022-10-16T12:36:14;19.80;99.90
3626;DHT22;1827;50.534;8.316;2022-10-16T12:38:52;20.10;99.90
3626;DHT22;1827;50.534;8.316;2022-10-16T12:43:55;20.20;99.90
3626;DHT22;1827;50.534;8.316;2022-10-16T12:46:37;20.30;99.90
3626;DHT22;1827;50.534;8.316;2022-10-16T12:51:40;19.60;99.90
3626;DHT22;1827;50.534;8.316;2022-10-16T13:03:04;19.60;99.90
3626;DHT22;1827;50.534;8.316;2022-10-16T13:28:08;19.60;99.90
3626;DHT22;1827;50.534;8.316;2022-10-16T13:30:39;19.60;99.90
3626;DHT22;1827;50.534;8.316;2022-10-16T13:35:36;19.60;99.90
3626;DHT22;1827;50.534;8.316;2022-10-16T13:38:20;19.50;99.90
3626;DHT22;1827;50.534;8.316;2022-10-16T13:41:02;19.60;99.90
3626;DHT22;1827;50.534;8.316;2022-10-16T13:43:35;19.60;99.90
3626;DHT22;1827;50.534;8.316;2022-10-16T13:46:06;19.50;99.90
3626;DHT22;1827;50.534;8.316;2022-10-16T13:48:33;19.50;99.90
3626;DHT22;1827;50.534;8.316;2022-10-16T13:51:12;19.40;99.90
3626;DHT22;1827;50.534;8.316;2022-10-16T13:53:39;19.40;99.90
3626;DHT22;1827;50.534;8.316;2022-10-16T13:56:11;19.60;99.90
3626;DHT22;1827;50.534;8.316;2022-10-16T13:58:37;19.80;99.90
3626;DHT22;1827;50.534;8.316;2022-10-16T14:01:05;19.80;99.90
3626;DHT22;1827;50.534;8.316;2022-10-16T14:03:32;19.60;99.90
3626;DHT22;1827;50.534;8.316;2022-10-16T14:06:04;19.90;99.90
3626;DHT22;1827;50.534;8.316;2022-10-16T14:08:32;20.20;99.90
3626;DHT22;1827;50.534;8.316;2022-10-16T14:11:02;20.10;99.90
3626;DHT22;1827;50.534;8.316;2022-10-16T14:13:37;19.90;99.90
3626;DHT22;1827;50.534;8.316;2022-10-16T14:16:07;19.70;99.90
3626;DHT22;1827;50.534;8.316;2022-10-16T14:18:34;19.70;99.90
3626;DHT22;1827;50.534;8.316;2022-10-16T14:21:11;19.60;99.90
3626;DHT22;1827;50.534;8.316;2022-10-16T14:23:39;19.60;99.90
3626;DHT22;1827;50.534;8.316;2022-10-16T14:28:35;19.70;99.90
3626;DHT22;1827;50.534;8.316;2022-10-16T14:31:02;19.60;99.90
3626;DHT22;1827;50.534;8.316;2022-10-16T14:38:37;19.50;99.90
3626;DHT22;1827;50.534;8.316;2022-10-16T14:41:04;19.40;99.90
3626;DHT22;1827;50.534;8.316;2022-10-16T14:43:40;19.30;99.90
3626;DHT22;1827;50.534;8.316;2022-10-16T14:46:20;19.20;99.90
3626;DHT22;1827;50.534;8.316;2022-10-16T14:48:50;19.20;99.90
3626;DHT22;1827;50.534;8.316;2022-10-16T14:51:20;19.20;99.90
3626;DHT22;1827;50.534;8.316;2022-10-16T14:53:46;19.20;99.90
3626;DHT22;1827;50.534;8.316;2022-10-16T14:56:25;19.30;99.90
3626;DHT22;1827;50.534;8.316;2022-10-16T14:58:52;19.30;99.90
3626;DHT22;1827;50.534;8.316;2022-10-16T15:01:18;19.10;99.90
3626;DHT22;1827;50.534;8.316;2022-10-16T15:03:44;19.30;99.90
3626;DHT22;1827;50.534;8.316;2022-10-16T15:06:11;19.40;99.90
3626;DHT22;1827;50.534;8.316;2022-10-16T15:08:38;19.30;99.90
3626;DHT22;1827;50.534;8.316;2022-10-16T15:11:04;19.20;99.90
3626;DHT22;1827;50.534;8.316;2022-10-16T15:13:30;19.40;99.90
3626;DHT22;1827;50.534;8.316;2022-10-16T15:15:56;19.20;99.90
3626;DHT22;1827;50.534;8.316;2022-10-16T15:18:21;18.90;99.90
3626;DHT22;1827;50.534;8.316;2022-10-16T15:20:49;18.90;99.90
3626;DHT22;1827;50.534;8.316;2022-10-16T15:23:18;19.00;99.90
3626;DHT22;1827;50.534;8.316;2022-10-16T15:28:14;19.00;99.90
3626;DHT22;1827;50.534;8.316;2022-10-16T15:30:40;19.00;99.90
3626;DHT22;1827;50.534;8.316;2022-10-16T15:33:13;18.90;99.90
3626;DHT22;1827;50.534;8.316;2022-10-16T15:35:39;18.90;99.90
3626;DHT22;1827;50.534;8.316;2022-10-16T15:38:05;18.80;99.90
3626;DHT22;1827;50.534;8.316;2022-10-16T15:40:30;18.80;99.90
3626;DHT22;1827;50.534;8.316;2022-10-16T15:42:56;18.70;99.90
3626;DHT22;1827;50.534;8.316;2022-10-16T15:45:22;18.70;99.90
3626;DHT22;1827;50.534;8.316;2022-10-16T15:47:48;18.60;99.90
3626;DHT22;1827;50.534;8.316;2022-10-16T15:50:15;18.60;99.90
3626;DHT22;1827;50.534;8.316;2022-10-16T15:52:41;18.60;99.90
3626;DHT22;1827;50.534;8.316;2022-10-16T15:55:08;18.60;99.90
3626;DHT22;1827;50.534;8.316;2022-10-16T15:57:36;18.50;99.90
3626;DHT22;1827;50.534;8.316;2022-10-16T16:00:09;18.30;99.90
3626;DHT22;1827;50.534;8.316;2022-10-16T16:02:37;18.20;99.90
3626;DHT22;1827;50.534;8.316;2022-10-16T16:05:03;17.80;99.90
3626;DHT22;1827;50.534;8.316;2022-10-16T16:07:33;17.70;99.90
3626;DHT22;1827;50.534;8.316;2022-10-16T16:09:59;17.60;99.90
3626;DHT22;1827;50.534;8.316;2022-10-16T16:12:25;17.70;99.90
3626;DHT22;1827;50.534;8.316;2022-10-16T16:14:51;17.40;99.90
3626;DHT22;1827;50.534;8.316;2022-10-16T16:17:17;17.00;99.90
3626;DHT22;1827;50.534;8.316;2022-10-16T16:19:43;17.10;99.90
3626;DHT22;1827;50.534;8.316;2022-10-16T16:22:10;17.10;99.90
3626;DHT22;1827;50.534;8.316;2022-10-16T16:24:36;17.20;99.90
3626;DHT22;1827;50.534;8.316;2022-10-16T16:27:02;17.20;99.90
3626;DHT22;1827;50.534;8.316;2022-10-16T16:29:28;17.10;99.90
3626;DHT22;1827;50.534;8.316;2022-10-16T16:31:53;17.20;99.90
3626;DHT22;1827;50.534;8.316;2022-10-16T16:34:26;17.20;99.90
3626;DHT22;1827;50.534;8.316;2022-10-16T16:36:54;16.80;99.90
3626;DHT22;1827;50.534;8.316;2022-10-16T16:39:20;16.70;99.90
3626;DHT22;1827;50.534;8.316;2022-10-16T16:41:45;16.50;99.90
3626;DHT22;1827;50.534;8.316;2022-10-16T16:44:12;16.40;99.90
3626;DHT22;1827;50.534;8.316;2022-10-16T16:46:38;16.40;99.90
3626;DHT22;1827;50.534;8.316;2022-10-16T16:49:06;16.40;99.90
3626;DHT22;1827;50.534;8.316;2022-10-16T16:51:32;16.50;99.90
3626;DHT22;1827;50.534;8.316;2022-10-16T16:53:59;16.60;99.90
3626;DHT22;1827;50.534;8.316;2022-10-16T16:56:25;16.60;99.90
3626;DHT22;1827;50.534;8.316;2022-10-16T16:58:54;16.50;99.90
3626;DHT22;1827;50.534;8.316;2022-10-16T17:01:21;16.50;99.90
3626;DHT22;1827;50.534;8.316;2022-10-16T17:03:49;16.40;99.90
3626;DHT22;1827;50.534;8.316;2022-10-16T17:06:15;16.30;99.90
3626;DHT22;1827;50.534;8.316;2022-10-16T17:08:42;16.30;99.90
3626;DHT22;1827;50.534;8.316;2022-10-16T17:11:13;16.30;99.90
3626;DHT22;1827;50.534;8.316;2022-10-16T17:13:39;16.30;99.90
3626;DHT22;1827;50.534;8.316;2022-10-16T17:16:06;16.30;99.90
3626;DHT22;1827;50.534;8.316;2022-10-16T17:18:32;16.30;99.90
3626;DHT22;1827;50.534;8.316;2022-10-16T17:21:03;16.30;99.90
3626;DHT22;1827;50.534;8.316;2022-10-16T17:23:30;16.20;99.90
3626;DHT22;1827;50.534;8.316;2022-10-16T17:25:56;16.20;99.90
3626;DHT22;1827;50.534;8.316;2022-10-16T17:28:22;16.10;99.90
3626;DHT22;1827;50.534;8.316;2022-10-16T17:30:50;16.00;99.90
3626;DHT22;1827;50.534;8.316;2022-10-16T17:33:15;16.00;99.90
3626;DHT22;1827;50.534;8.316;2022-10-16T17:35:44;16.10;99.90
3626;DHT22;1827;50.534;8.316;2022-10-16T17:38:11;16.10;99.90
3626;DHT22;1827;50.534;8.316;2022-10-16T17:40:37;15.90;99.90
3626;DHT22;1827;50.534;8.316;2022-10-16T17:43:04;16.00;99.90
3626;DHT22;1827;50.534;8.316;2022-10-16T17:45:30;15.90;99.90
3626;DHT22;1827;50.534;8.316;2022-10-16T17:47:59;15.80;99.90
3626;DHT22;1827;50.534;8.316;2022-10-16T17:50:25;15.60;99.90
3626;DHT22;1827;50.534;8.316;2022-10-16T17:52:51;15.60;99.90
3626;DHT22;1827;50.534;8.316;2022-10-16T17:55:17;15.70;99.90
3626;DHT22;1827;50.534;8.316;2022-10-16T17:57:43;15.60;99.90
3626;DHT22;1827;50.534;8.316;2022-10-16T18:00:09;15.60;99.90
3626;DHT22;1827;50.534;8.316;2022-10-16T18:02:35;15.50;99.90
3626;DHT22;1827;50.534;8.316;2022-10-16T18:05:01;15.40;99.90
3626;DHT22;1827;50.534;8.316;2022-10-16T18:07:30;15.30;99.90
3626;DHT22;1827;50.534;8.316;2022-10-16T18:09:56;15.20;99.90
3626;DHT22;1827;50.534;8.316;2022-10-16T18:12:22;15.30;99.90
3626;DHT22;1827;50.534;8.316;2022-10-16T18:14:48;15.40;99.90
3626;DHT22;1827;50.534;8.316;2022-10-16T18:17:13;15.40;99.90